Time;durP1;ratioP1;P1;durP2;ratioP2;P2;SDS_P1;SDS_P2;PMS_P1;PMS_P2;Temp;Humidity;BMP_temperature;BMP_pressure;BME280_temperature;BME280_humidity;BME280_pressure;Samples;Min_cycle;Max_cycle;Signal;HPM_P1;HPM_P2
2022/12/10 00:01:14;;;;;;;50.65;28.45;;;1.20;83.20;;;;;;5093643;28;20487;-83
2022/12/10 00:03:41;;;;;;;50.47;28.25;;;1.30;83.30;;;;;;5096333;28;20040;-83
2022/12/10 00:06:13;;;;;;;45.00;26.60;;;1.30;83.10;;;;;;5117758;28;20027;-83
2022/12/10 00:08:39;;;;;;;46.70;26.95;;;1.20;83.10;;;;;;5117318;28;20016;-84
2022/12/10 00:11:07;;;;;;;48.30;26.35;;;1.30;83.30;;;;;;5103529;28;20043;-84
2022/12/10 00:13:35;;;;;;;46.88;25.58;;;1.30;83.40;;;;;;5101036;28;20032;-83
2022/12/10 00:16:06;;;;;;;47.28;25.85;;;1.30;83.40;;;;;;5094645;28;20026;-85
2022/12/10 00:18:32;;;;;;;45.90;26.40;;;1.30;83.50;;;;;;5076982;28;20111;-85
2022/12/10 00:20:58;;;;;;;45.72;25.40;;;1.30;83.30;;;;;;5076942;28;20058;-80
2022/12/10 00:23:24;;;;;;;48.78;27.27;;;1.30;83.30;;;;;;5096991;28;20020;-85
2022/12/10 00:25:50;;;;;;;49.72;27.13;;;1.10;83.70;;;;;;5096965;28;20483;-82
2022/12/10 00:28:15;;;;;;;45.92;26.60;;;1.10;84.10;;;;;;5095809;28;20032;-81
2022/12/10 00:30:45;;;;;;;45.35;26.38;;;1.10;84.30;;;;;;5100235;28;20557;-86
2022/12/10 00:33:10;;;;;;;54.35;27.63;;;1.00;84.40;;;;;;5101901;28;20035;-85
2022/12/10 00:35:37;;;;;;;47.60;27.42;;;1.00;84.60;;;;;;5102440;28;20024;-85
2022/12/10 00:38:03;;;;;;;45.42;25.48;;;0.90;84.80;;;;;;5102532;28;20028;-85
2022/12/10 00:40:29;;;;;;;50.15;27.60;;;0.90;84.80;;;;;;5101418;28;20047;-86
2022/12/10 00:42:55;;;;;;;46.10;25.67;;;0.90;84.90;;;;;;5098263;28;20016;-87
2022/12/10 00:45:22;;;;;;;53.95;28.48;;;0.90;85.20;;;;;;5093745;28;20034;-86
2022/12/10 00:47:47;;;;;;;51.20;27.05;;;0.90;85.20;;;;;;5095079;28;20024;-87
2022/12/10 00:50:16;;;;;;;52.00;26.83;;;1.00;85.20;;;;;;5095922;28;20030;-87
2022/12/10 00:52:42;;;;;;;54.35;27.23;;;1.00;85.00;;;;;;5095096;28;20048;-87
2022/12/10 00:55:09;;;;;;;57.28;28.60;;;1.00;85.00;;;;;;5096771;28;20039;-86
2022/12/10 00:57:36;;;;;;;57.70;28.30;;;1.00;85.30;;;;;;5094461;28;20040;-86
2022/12/10 01:00:03;;;;;;;60.92;30.15;;;1.00;85.20;;;;;;5106774;28;20028;-85
2022/12/10 01:02:30;;;;;;;67.30;30.38;;;1.00;85.30;;;;;;5100938;28;20111;-86
2022/12/10 01:04:57;;;;;;;65.40;29.67;;;0.90;85.70;;;;;;5077941;28;20025;-85
2022/12/10 01:07:24;;;;;;;58.72;28.25;;;0.90;85.70;;;;;;5078347;28;20032;-85
2022/12/10 01:09:49;;;;;;;62.65;30.10;;;1.00;85.70;;;;;;5078198;28;20279;-87
2022/12/10 01:12:15;;;;;;;66.97;31.63;;;1.00;85.60;;;;;;5078166;28;20133;-85
2022/12/10 01:14:41;;;;;;;64.28;30.33;;;1.00;85.50;;;;;;5098226;28;20063;-86
2022/12/10 01:17:07;;;;;;;60.35;29.95;;;0.90;85.70;;;;;;5095655;28;20085;-86
2022/12/10 01:19:35;;;;;;;57.47;30.13;;;0.90;86.00;;;;;;5059868;28;20151;-85
2022/12/10 01:22:01;;;;;;;57.88;28.67;;;0.90;85.80;;;;;;5076730;28;20039;-85
2022/12/10 01:24:29;;;;;;;49.85;26.70;;;1.00;85.80;;;;;;5094039;28;20447;-86
2022/12/10 01:26:57;;;;;;;56.53;28.67;;;1.00;85.60;;;;;;5076630;28;20068;-86
2022/12/10 01:29:26;;;;;;;56.83;28.40;;;1.10;85.60;;;;;;5076706;28;20435;-85
2022/12/10 01:31:54;;;;;;;55.20;28.15;;;1.10;85.40;;;;;;5076532;28;20032;-87
2022/12/10 01:34:20;;;;;;;58.85;28.88;;;1.10;85.10;;;;;;5076788;28;20093;-87
2022/12/10 01:36:50;;;;;;;53.33;28.92;;;1.00;85.20;;;;;;5075775;28;20032;-86
2022/12/10 01:39:17;;;;;;;58.35;28.15;;;1.10;85.30;;;;;;5095599;28;20028;-86
2022/12/10 01:41:56;;;;;;;55.58;28.58;;;1.10;85.00;;;;;;5097035;28;20412;-87
2022/12/10 01:44:22;;;;;;;50.90;27.02;;;1.10;85.00;;;;;;5081368;28;20119;-88
2022/12/10 01:46:52;;;;;;;51.80;27.25;;;1.10;85.00;;;;;;5096965;28;20060;-87
2022/12/10 01:49:26;;;;;;;53.30;28.38;;;1.10;85.10;;;;;;5085701;28;20047;-85
2022/12/10 01:51:56;;;;;;;54.85;29.38;;;1.10;85.10;;;;;;5091419;28;20032;-87
2022/12/10 01:54:32;;;;;;;56.20;28.27;;;1.10;85.00;;;;;;5097347;28;20024;-87
2022/12/10 01:57:20;;;;;;;58.90;27.17;;;1.00;84.80;;;;;;5096936;28;20035;-87
2022/12/10 01:59:51;;;;;;;49.88;26.27;;;1.00;84.80;;;;;;5098477;28;20103;-87
2022/12/10 02:02:25;;;;;;;48.83;25.85;;;1.00;84.90;;;;;;5097200;28;20028;-87
2022/12/10 02:05:13;;;;;;;52.58;27.15;;;1.10;84.90;;;;;;5097823;28;20107;-87
2022/12/10 02:07:57;;;;;;;51.70;27.02;;;1.10;84.90;;;;;;5096841;28;20096;-85
2022/12/10 02:10:47;;;;;;;46.50;25.58;;;1.10;85.00;;;;;;5096557;28;20024;-86
2022/12/10 02:13:25;;;;;;;55.17;27.63;;;1.10;85.00;;;;;;5096610;28;20028;-86
2022/12/10 02:15:59;;;;;;;55.80;29.40;;;1.00;85.00;;;;;;5096183;28;20031;-85
2022/12/10 02:18:56;;;;;;;53.70;27.83;;;0.90;85.40;;;;;;5096559;28;20080;-87
2022/12/10 02:21:25;;;;;;;;;;;0.90;85.60;;;;;;5096185;28;20050;-87
2022/12/10 02:23:57;;;;;;;50.40;26.17;;;0.90;86.50;;;;;;5096229;28;19904;-86
2022/12/10 02:26:33;;;;;;;48.65;26.05;;;0.90;85.50;;;;;;5096286;28;20487;-87
2022/12/10 02:29:16;;;;;;;51.78;28.30;;;1.00;85.30;;;;;;5096536;28;20024;-87
2022/12/10 02:31:57;;;;;;;50.97;27.85;;;1.10;85.50;;;;;;5096275;28;20053;-85
2022/12/10 02:34:28;;;;;;;53.90;27.65;;;1.10;85.30;;;;;;5095804;28;20050;-85
2022/12/10 02:36:56;;;;;;;55.85;27.25;;;1.00;85.00;;;;;;5095692;28;20062;-87
2022/12/10 02:39:27;;;;;;;53.33;28.40;;;0.90;85.10;;;;;;5079578;28;20034;-84
2022/12/10 02:41:54;;;;;;;51.22;27.30;;;0.90;85.40;;;;;;5095826;28;20030;-84
2022/12/10 02:44:22;;;;;;;47.75;27.00;;;0.80;85.30;;;;;;5095532;28;20047;-85
2022/12/10 02:46:54;;;;;;;50.88;26.88;;;0.90;85.40;;;;;;5095741;28;20024;-85
2022/12/10 02:49:21;;;;;;;50.25;27.63;;;0.90;85.40;;;;;;5096174;28;20388;-85
2022/12/10 02:51:49;;;;;;;45.78;25.65;;;0.90;85.60;;;;;;5095398;28;20120;-85
2022/12/10 02:54:40;;;;;;;50.42;27.45;;;1.00;85.70;;;;;;5059038;28;20052;-85
2022/12/10 02:57:37;;;;;;;46.35;24.77;;;1.00;85.50;;;;;;5075965;28;20052;-87
2022/12/10 03:00:16;;;;;;;46.50;26.85;;;1.10;85.50;;;;;;5034811;28;20059;-87
2022/12/10 03:03:03;;;;;;;47.42;25.80;;;1.10;85.30;;;;;;5075426;28;20024;-85
2022/12/10 03:05:43;;;;;;;49.65;27.38;;;1.10;85.10;;;;;;5075040;28;20504;-86
2022/12/10 03:08:21;;;;;;;52.10;27.30;;;1.00;84.80;;;;;;5075518;28;20048;-86
2022/12/10 03:11:02;;;;;;;49.65;27.17;;;1.00;85.40;;;;;;5074840;28;20025;-85
2022/12/10 03:13:35;;;;;;;52.30;26.50;;;1.00;85.30;;;;;;5074453;28;20032;-86
2022/12/10 03:16:04;;;;;;;49.72;27.17;;;1.00;85.40;;;;;;5058605;28;20028;-85
2022/12/10 03:18:34;;;;;;;54.10;28.27;;;1.00;85.30;;;;;;5075024;28;20051;-85
2022/12/10 03:21:04;;;;;;;56.85;28.58;;;1.00;85.40;;;;;;5074976;28;20107;-84
2022/12/10 03:23:34;;;;;;;53.22;27.98;;;1.00;85.50;;;;;;5058237;28;20029;-84
2022/12/10 03:26:04;;;;;;;55.55;28.02;;;0.90;85.70;;;;;;5058402;28;20497;-84
2022/12/10 03:28:35;;;;;;;46.10;26.40;;;1.00;85.50;;;;;;5074075;28;20043;-85
2022/12/10 03:31:02;;;;;;;56.75;30.70;;;1.00;85.40;;;;;;5074443;28;20021;-86
2022/12/10 03:33:28;;;;;;;52.03;28.38;;;0.90;85.60;;;;;;5073675;28;20044;-86
2022/12/10 03:35:56;;;;;;;54.90;29.58;;;0.90;85.50;;;;;;5075589;28;20082;-85
2022/12/10 03:38:25;;;;;;;55.72;28.45;;;1.00;85.50;;;;;;5074367;28;20044;-85
2022/12/10 03:40:51;;;;;;;56.80;30.88;;;1.00;85.50;;;;;;5074591;28;20068;-86
2022/12/10 03:43:16;;;;;;;58.22;30.33;;;1.00;86.10;;;;;;5057689;28;20035;-86
2022/12/10 03:45:43;;;;;;;63.10;31.48;;;1.00;86.00;;;;;;5074385;28;20028;-86
2022/12/10 03:48:10;;;;;;;57.08;30.40;;;1.00;86.10;;;;;;5057947;28;20508;-86
2022/12/10 03:50:37;;;;;;;63.47;32.95;;;1.00;86.10;;;;;;5058105;28;20028;-88
2022/12/10 03:53:03;;;;;;;62.65;30.35;;;0.90;86.30;;;;;;5071387;28;20141;-88
2022/12/10 03:55:32;;;;;;;58.28;29.95;;;0.90;86.60;;;;;;5077368;28;20179;-88
2022/12/10 03:57:59;;;;;;;64.28;32.00;;;1.00;86.60;;;;;;5095122;28;20119;-88
2022/12/10 04:00:26;;;;;;;63.83;30.70;;;1.00;86.40;;;;;;5095440;28;20467;-87
2022/12/10 04:02:53;;;;;;;53.60;28.60;;;1.00;86.40;;;;;;5094403;28;20487;-88
2022/12/10 04:05:19;;;;;;;57.13;30.42;;;1.00;86.40;;;;;;5078589;28;20031;-87
2022/12/10 04:07:44;;;;;;;56.92;30.15;;;1.00;86.40;;;;;;5078051;28;20032;-88
2022/12/10 04:10:10;;;;;;;62.85;30.58;;;1.00;87.20;;;;;;5077852;28;20515;-87
2022/12/10 04:12:36;;;;;;;63.95;31.45;;;1.00;86.50;;;;;;5094128;28;20475;-81
2022/12/10 04:17:47;;;;;;;58.47;30.70;;;0.90;86.70;;;;;;5095653;28;20039;-82
2022/12/10 04:28:27;;;;;;;61.17;29.65;;;1.10;86.70;;;;;;5100619;28;20031;-84
2022/12/10 04:30:52;;;;;;;62.15;30.73;;;1.10;86.70;;;;;;5111444;28;20024;-87
2022/12/10 04:33:20;;;;;;;60.13;29.65;;;1.10;86.80;;;;;;5106139;28;20034;-80
2022/12/10 04:35:46;;;;;;;57.97;29.95;;;1.20;86.70;;;;;;5081810;28;20054;-85
2022/12/10 04:38:14;;;;;;;65.30;32.28;;;1.10;86.50;;;;;;5079293;28;20032;-81
2022/12/10 04:40:41;;;;;;;69.07;32.80;;;1.10;86.70;;;;;;5093535;28;20020;-87
2022/12/10 04:43:06;;;;;;;64.65;31.35;;;1.00;86.80;;;;;;5093866;28;20070;-87
2022/12/10 04:45:34;;;;;;;62.15;31.77;;;1.00;87.00;;;;;;5093103;28;20027;-85
2022/12/10 04:48:00;;;;;;;63.78;31.50;;;1.00;87.10;;;;;;5092965;28;20031;-83
2022/12/10 04:50:26;;;;;;;56.92;29.52;;;1.10;87.20;;;;;;5094650;28;20383;-85
2022/12/10 04:52:55;;;;;;;61.65;30.48;;;1.10;87.20;;;;;;5075993;28;20048;-86
2022/12/10 04:55:20;;;;;;;62.13;31.35;;;1.10;87.10;;;;;;5093671;28;20028;-85
2022/12/10 04:57:49;;;;;;;62.67;29.67;;;1.20;87.00;;;;;;5093201;28;20133;-85
2022/12/10 05:00:15;;;;;;;59.90;31.58;;;1.20;87.00;;;;;;5092853;28;20035;-85
2022/12/10 05:02:42;;;;;;;57.97;30.42;;;1.20;86.90;;;;;;5092507;28;20028;-85
2022/12/10 05:05:09;;;;;;;67.45;31.25;;;1.20;86.80;;;;;;5092765;28;20023;-85
2022/12/10 05:07:36;;;;;;;67.13;31.63;;;1.20;86.90;;;;;;5076210;28;20086;-85
2022/12/10 05:10:03;;;;;;;66.28;32.28;;;1.20;86.90;;;;;;5075863;28;20028;-86
2022/12/10 05:12:32;;;;;;;66.07;31.80;;;1.20;86.90;;;;;;5092954;28;20369;-85
2022/12/10 05:14:59;;;;;;;65.65;30.08;;;1.20;86.80;;;;;;5079339;28;20125;-86
2022/12/10 05:17:28;;;;;;;66.07;30.02;;;1.20;86.80;;;;;;5096787;28;20084;-85
2022/12/10 05:19:55;;;;;;;66.93;32.63;;;1.20;87.00;;;;;;5080623;28;20054;-86
2022/12/10 05:25:08;;;;;;;68.85;32.33;;;1.20;87.00;;;;;;5097868;28;20115;-83
2022/12/10 05:27:35;;;;;;;68.90;32.40;;;1.30;87.20;;;;;;5095840;28;20066;-85
2022/12/10 05:30:01;;;;;;;80.57;36.40;;;1.30;87.10;;;;;;5097542;28;20031;-85
2022/12/10 05:32:26;;;;;;;79.18;36.28;;;1.30;87.10;;;;;;5095793;28;20035;-85
2022/12/10 05:34:52;;;;;;;73.40;33.92;;;1.30;87.10;;;;;;5096054;28;20190;-86
2022/12/10 05:37:19;;;;;;;71.93;32.90;;;1.30;87.00;;;;;;5078830;28;20047;-85
2022/12/10 05:39:47;;;;;;;65.93;32.38;;;1.30;86.90;;;;;;5079154;28;20088;-85
2022/12/10 05:42:12;;;;;;;64.65;32.65;;;1.30;87.00;;;;;;5079269;28;20051;-86
2022/12/10 05:44:39;;;;;;;66.75;33.22;;;1.30;87.20;;;;;;5079092;28;20032;-85
2022/12/10 05:47:06;;;;;;;63.08;30.75;;;1.30;87.00;;;;;;5096380;28;20027;-86
2022/12/10 05:49:34;;;;;;;64.90;30.20;;;1.20;86.90;;;;;;5097256;28;20032;-82
2022/12/10 05:52:03;;;;;;;60.35;29.33;;;1.30;87.10;;;;;;5098469;28;20111;-82
2022/12/10 05:54:30;;;;;;;67.68;31.55;;;1.20;87.10;;;;;;5098945;28;20044;-86
2022/12/10 05:56:57;;;;;;;66.47;30.70;;;1.20;87.20;;;;;;5083015;28;20091;-85
2022/12/10 05:59:23;;;;;;;67.25;32.08;;;1.20;87.40;;;;;;5083490;28;20486;-84
2022/12/10 06:01:50;;;;;;;62.97;31.77;;;1.30;87.40;;;;;;5100171;28;20124;-83
2022/12/10 06:04:17;;;;;;;69.53;33.60;;;1.30;87.30;;;;;;5082878;28;20506;-82
2022/12/10 06:06:47;;;;;;;64.70;31.45;;;1.30;87.10;;;;;;5098491;28;20039;-82
2022/12/10 06:09:13;;;;;;;66.70;32.10;;;1.30;87.00;;;;;;5096451;28;20020;-84
2022/12/10 06:11:41;;;;;;;66.95;31.80;;;1.20;86.90;;;;;;5079463;28;20036;-81
2022/12/10 06:14:06;;;;;;;67.80;33.50;;;1.20;86.90;;;;;;5096466;28;20024;-85
2022/12/10 06:16:32;;;;;;;62.05;32.45;;;1.20;87.20;;;;;;5078413;28;20350;-86
2022/12/10 06:18:58;;;;;;;74.40;36.63;;;1.20;87.40;;;;;;5095130;28;20492;-83
2022/12/10 06:21:24;;;;;;;66.45;33.13;;;1.20;87.40;;;;;;5095352;28;20036;-86
2022/12/10 06:23:51;;;;;;;62.55;31.30;;;1.20;87.40;;;;;;5094965;28;20035;-86
2022/12/10 06:26:20;;;;;;;63.65;30.98;;;1.20;87.30;;;;;;5078472;28;20028;-87
2022/12/10 06:28:47;;;;;;;62.10;30.35;;;1.20;87.40;;;;;;5095417;28;20085;-86
2022/12/10 06:31:15;;;;;;;60.45;30.20;;;1.20;87.40;;;;;;5095108;28;20101;-83
2022/12/10 06:33:43;;;;;;;65.38;30.05;;;1.30;87.60;;;;;;5078100;28;20113;-81
2022/12/10 06:36:11;;;;;;;56.53;29.85;;;1.30;87.60;;;;;;5094694;28;20497;-81
2022/12/10 06:38:39;;;;;;;58.80;30.25;;;1.30;87.60;;;;;;5095476;28;20114;-85
2022/12/10 06:41:07;;;;;;;57.95;29.70;;;1.30;87.30;;;;;;5095998;28;20031;-84
2022/12/10 06:43:33;;;;;;;66.40;32.50;;;1.30;87.40;;;;;;5094418;28;20472;-84
2022/12/10 06:46:08;;;;;;;66.85;31.48;;;1.30;87.30;;;;;;5097485;28;20039;-84
2022/12/10 06:48:34;;;;;;;59.63;30.75;;;1.30;87.40;;;;;;5096014;28;20127;-84
2022/12/10 06:51:01;;;;;;;65.07;29.55;;;1.30;87.50;;;;;;5095710;28;20123;-82
2022/12/10 06:53:49;;;;;;;61.92;31.30;;;1.30;87.60;;;;;;5094244;28;20483;-87
2022/12/10 06:56:21;;;;;;;60.47;30.00;;;1.30;87.70;;;;;;5092229;28;20480;-82
2022/12/10 06:58:48;;;;;;;56.83;29.65;;;1.30;87.70;;;;;;5078736;28;20093;-85
2022/12/10 07:01:30;;;;;;;71.38;32.75;;;1.30;87.60;;;;;;5078598;28;20085;-85
2022/12/10 07:03:58;;;;;;;72.00;32.25;;;1.40;87.50;;;;;;5078320;28;20028;-84
2022/12/10 07:06:28;;;;;;;65.45;31.98;;;1.30;88.00;;;;;;5095587;28;20028;-85
2022/12/10 07:08:55;;;;;;;70.90;31.20;;;1.20;87.90;;;;;;5096761;28;20152;-84
2022/12/10 07:11:23;;;;;;;70.90;32.88;;;1.20;88.10;;;;;;5077628;28;20020;-84
2022/12/10 07:13:52;;;;;;;78.57;35.35;;;1.30;88.20;;;;;;5094612;28;20064;-85
2022/12/10 07:16:27;;;;;;;78.25;35.25;;;1.20;88.30;;;;;;5078253;28;20059;-86
2022/12/10 07:18:55;;;;;;;;;;;1.10;89.10;;;;;;5094778;28;20207;-85
2022/12/10 07:21:26;;;;;;;77.25;34.38;;;1.10;89.40;;;;;;5094011;28;19908;-81
2022/12/10 07:23:54;;;;;;;69.53;33.05;;;1.10;89.60;;;;;;5093703;28;20024;-81
2022/12/10 07:26:24;;;;;;;66.30;32.90;;;1.10;89.70;;;;;;5093959;28;20503;-83
2022/12/10 07:28:54;;;;;;;63.08;31.58;;;1.10;89.60;;;;;;5076080;28;20048;-84
2022/12/10 07:31:22;;;;;;;63.38;32.03;;;1.20;89.50;;;;;;5093423;28;20605;-85
2022/12/10 07:33:50;;;;;;;63.80;31.90;;;1.20;89.50;;;;;;5095020;28;20434;-85
2022/12/10 07:36:16;;;;;;;66.75;33.70;;;1.20;89.50;;;;;;5076325;28;20031;-84
2022/12/10 07:38:43;;;;;;;69.78;35.03;;;1.30;89.40;;;;;;5093848;28;20126;-85
2022/12/10 07:41:12;;;;;;;63.13;33.38;;;1.30;89.30;;;;;;5093899;28;20017;-84
2022/12/10 07:43:39;;;;;;;62.55;30.23;;;1.30;89.10;;;;;;5094246;28;20372;-86
2022/12/10 07:46:08;;;;;;;65.93;32.83;;;1.30;89.10;;;;;;5093766;28;20032;-86
2022/12/10 07:48:35;;;;;;;64.32;31.40;;;1.20;89.00;;;;;;5095404;28;20499;-85
2022/12/10 07:51:04;;;;;;;60.00;30.50;;;1.20;89.10;;;;;;5093018;28;20036;-83
2022/12/10 07:53:30;;;;;;;59.03;30.13;;;1.20;89.10;;;;;;5092889;28;20450;-83
2022/12/10 07:56:00;;;;;;;55.83;29.90;;;1.30;89.20;;;;;;5092872;28;20539;-82
2022/12/10 07:58:25;;;;;;;58.63;29.52;;;1.30;89.90;;;;;;5076287;28;20036;-82
2022/12/10 08:00:52;;;;;;;63.20;31.55;;;1.30;89.00;;;;;;5093734;28;20027;-82
2022/12/10 08:03:19;;;;;;;52.45;30.00;;;1.40;88.80;;;;;;5093103;28;20024;-86
2022/12/10 08:05:45;;;;;;;53.60;28.58;;;1.30;88.70;;;;;;5076876;28;20515;-86
2022/12/10 08:08:11;;;;;;;59.38;29.13;;;1.40;88.70;;;;;;5094051;28;20028;-87
2022/12/10 08:10:38;;;;;;;60.97;31.38;;;1.30;88.50;;;;;;5093902;28;20476;-87
2022/12/10 08:13:04;;;;;;;61.20;32.33;;;1.40;88.60;;;;;;5096416;28;20048;-86
2022/12/10 08:15:50;;;;;;;59.67;30.02;;;1.30;88.60;;;;;;5094194;28;20054;-87
2022/12/10 08:18:29;;;;;;;;;;;1.40;88.50;;;;;;5077366;28;20043;-84
2022/12/10 08:21:23;;;;;;;56.55;29.30;;;1.30;88.30;;;;;;5093550;28;19916;-84
2022/12/10 08:24:09;;;;;;;56.72;29.13;;;1.40;88.40;;;;;;5095098;28;20119;-84
2022/12/10 08:26:35;;;;;;;58.88;31.17;;;1.40;88.50;;;;;;5085258;22;20136;-82
2022/12/10 08:29:01;;;;;;;60.65;31.30;;;1.50;88.40;;;;;;5032937;28;20053;-82
2022/12/10 08:31:27;;;;;;;57.72;30.00;;;1.50;87.60;;;;;;5034617;28;20080;-82
2022/12/10 08:33:52;;;;;;;59.28;31.02;;;1.50;87.70;;;;;;5035298;28;20482;-83
2022/12/10 08:36:19;;;;;;;53.42;29.75;;;1.50;87.50;;;;;;5035367;28;20108;-83
2022/12/10 08:38:45;;;;;;;71.95;30.10;;;1.50;87.40;;;;;;5033420;28;20080;-84
2022/12/10 08:41:13;;;;;;;73.68;31.90;;;2.00;93.70;;;;;;5034022;28;20025;-84
2022/12/10 08:43:39;;;;;;;59.20;31.13;;;2.40;95.20;;;;;;5035308;28;20359;-82
2022/12/10 08:46:05;;;;;;;54.83;30.58;;;2.70;94.10;;;;;;5034705;28;20032;-81
2022/12/10 08:48:31;;;;;;;53.15;28.48;;;2.90;89.00;;;;;;5037453;28;20033;-82
2022/12/10 08:50:57;;;;;;;51.55;28.60;;;2.90;86.30;;;;;;5032006;28;20025;-82
2022/12/10 08:53:23;;;;;;;53.70;28.45;;;2.90;85.20;;;;;;5033735;28;20124;-82
2022/12/10 08:55:53;;;;;;;47.70;26.77;;;2.80;83.70;;;;;;5036520;28;20072;-80
2022/12/10 08:58:19;;;;;;;56.83;28.45;;;2.80;83.30;;;;;;5033462;28;20368;-82
2022/12/10 09:00:45;;;;;;;48.58;25.77;;;2.80;82.50;;;;;;5041323;28;20108;-79
2022/12/10 09:03:11;;;;;;;46.70;25.85;;;2.70;82.80;;;;;;5036830;28;20022;-81
2022/12/10 09:05:37;;;;;;;51.80;28.20;;;2.70;82.50;;;;;;5032859;28;20022;-81
2022/12/10 09:08:03;;;;;;;54.70;28.63;;;2.60;81.10;;;;;;5032700;28;20022;-81
2022/12/10 09:10:28;;;;;;;50.20;28.35;;;2.40;80.40;;;;;;5033989;28;20685;-81
2022/12/10 09:12:54;;;;;;;54.28;29.35;;;2.20;81.40;;;;;;5033159;28;20033;-83
2022/12/10 09:15:19;;;;;;;53.10;29.02;;;2.10;82.10;;;;;;5033178;28;20029;-82
2022/12/10 09:17:45;;;;;;;54.63;30.23;;;2.00;82.40;;;;;;5032961;28;20071;-81
2022/12/10 09:20:11;;;;;;;53.25;28.60;;;1.90;83.10;;;;;;5032957;28;20018;-79
2022/12/10 09:22:36;;;;;;;52.88;29.27;;;1.80;83.40;;;;;;5032706;28;20156;-80
2022/12/10 09:25:09;;;;;;;52.50;29.02;;;1.80;83.70;;;;;;5032582;28;20136;-81
2022/12/10 09:27:35;;;;;;;53.15;28.52;;;1.80;83.60;;;;;;5032796;28;20393;-80
2022/12/10 09:30:04;;;;;;;56.13;31.10;;;1.70;83.60;;;;;;5032679;28;20493;-79
2022/12/10 09:32:30;;;;;;;57.15;29.73;;;1.70;83.90;;;;;;5032485;28;20040;-80
2022/12/10 09:34:55;;;;;;;60.70;32.65;;;1.70;84.10;;;;;;5033142;28;20178;-79
2022/12/10 09:37:21;;;;;;;53.40;30.15;;;1.70;83.80;;;;;;5031403;28;20036;-76
2022/12/10 09:39:46;;;;;;;55.63;31.42;;;1.50;84.20;;;;;;5032594;28;20022;-78
2022/12/10 09:42:36;;;;;;;60.70;30.65;;;1.60;84.40;;;;;;5032999;28;20088;-83
2022/12/10 09:45:14;;;;;;;51.95;29.58;;;1.50;84.60;;;;;;5033186;28;20033;-80
2022/12/10 09:47:56;;;;;;;55.13;30.42;;;1.60;84.70;;;;;;5032453;28;20060;-83
2022/12/10 09:50:41;;;;;;;55.95;29.55;;;1.60;84.40;;;;;;5032602;28;20026;-83
2022/12/10 09:53:11;;;;;;;54.10;29.80;;;1.60;84.10;;;;;;5032554;28;20472;-82
2022/12/10 09:55:42;;;;;;;51.47;29.52;;;1.60;83.90;;;;;;5032689;28;20022;-82
2022/12/10 09:58:17;;;;;;;58.38;30.80;;;1.60;83.80;;;;;;5032605;28;20033;-82
2022/12/10 10:00:46;;;;;;;52.95;29.63;;;1.50;83.90;;;;;;5034897;28;20135;-82
2022/12/10 10:03:14;;;;;;;56.67;30.85;;;1.50;84.30;;;;;;5036017;28;20068;-82
2022/12/10 10:05:46;;;;;;;55.10;30.23;;;1.50;84.50;;;;;;5035891;28;20053;-82
2022/12/10 10:08:26;;;;;;;52.67;28.60;;;1.50;84.70;;;;;;5035785;28;20462;-82
2022/12/10 10:10:52;;;;;;;52.08;28.98;;;1.50;84.60;;;;;;5034780;28;20049;-82
2022/12/10 10:13:41;;;;;;;55.47;29.88;;;1.50;85.20;;;;;;5035681;28;20067;-83
2022/12/10 10:16:15;;;;;;;55.70;31.85;;;1.60;84.30;;;;;;5034042;28;20025;-83
2022/12/10 10:18:46;;;;;;;43.88;25.02;;;1.50;84.30;;;;;;5034681;28;20116;-82
2022/12/10 10:21:23;;;;;;;56.50;30.58;;;1.50;84.80;;;;;;5034599;28;20036;-82
2022/12/10 10:23:49;;;;;;;60.25;32.47;;;1.40;85.00;;;;;;5034551;28;20025;-81
2022/12/10 10:26:15;;;;;;;60.50;33.08;;;1.30;85.50;;;;;;5035760;28;20054;-83
2022/12/10 10:28:42;;;;;;;55.63;32.67;;;1.20;85.80;;;;;;5036003;28;20017;-82
2022/12/10 10:31:24;;;;;;;59.20;34.28;;;1.20;85.80;;;;;;5035647;28;20109;-81
2022/12/10 10:33:56;;;;;;;58.78;33.47;;;1.20;86.00;;;;;;5035118;28;20498;-82
2022/12/10 10:36:31;;;;;;;57.08;32.53;;;1.30;86.10;;;;;;5035510;28;20462;-82
2022/12/10 10:38:57;;;;;;;60.28;33.33;;;1.30;85.50;;;;;;5034534;28;20036;-83
2022/12/10 10:41:25;;;;;;;56.33;31.80;;;1.30;85.50;;;;;;5035405;28;20060;-82
2022/12/10 10:43:59;;;;;;;59.60;32.70;;;1.50;85.60;;;;;;5034104;28;20018;-81
2022/12/10 10:46:26;;;;;;;56.50;32.08;;;1.60;84.80;;;;;;5035661;28;20053;-81
2022/12/10 10:48:56;;;;;;;59.75;33.88;;;1.80;84.20;;;;;;5035282;28;20079;-81
2022/12/10 10:51:25;;;;;;;64.82;33.20;;;1.80;83.50;;;;;;5035422;28;20021;-81
2022/12/10 10:53:52;;;;;;;56.38;32.40;;;1.80;83.00;;;;;;5035376;28;20034;-81
2022/12/10 10:56:39;;;;;;;62.05;33.58;;;1.70;83.10;;;;;;5034967;28;20562;-81
2022/12/10 10:59:31;;;;;;;57.53;33.10;;;1.70;83.40;;;;;;5035363;28;20029;-82
2022/12/10 11:02:31;;;;;;;61.40;34.30;;;1.50;84.40;;;;;;5035068;28;20103;-82
2022/12/10 11:05:00;;;;;;;57.95;32.38;;;1.50;83.80;;;;;;5034680;28;20026;-82
2022/12/10 11:07:36;;;;;;;56.33;32.03;;;1.40;83.80;;;;;;5034670;28;20543;-81
2022/12/10 11:10:16;;;;;;;62.85;33.83;;;1.20;84.40;;;;;;5034924;28;20029;-82
2022/12/10 11:12:43;;;;;;;56.72;31.73;;;1.10;85.00;;;;;;5033362;28;20410;-81
2022/12/10 11:15:30;;;;;;;56.38;31.40;;;1.20;86.00;;;;;;5034621;28;20028;-80
2022/12/10 11:17:56;;;;;;;60.33;33.60;;;1.20;85.10;;;;;;5034832;28;20033;-81
2022/12/10 11:20:33;;;;;;;55.88;30.20;;;1.20;84.70;;;;;;5035299;28;20033;-80
2022/12/10 11:23:01;;;;;;;53.85;31.08;;;1.20;84.50;;;;;;5044767;28;20548;-80
2022/12/10 11:25:33;;;;;;;57.30;30.75;;;1.30;84.60;;;;;;5034691;28;20096;-82
2022/12/10 11:28:07;;;;;;;53.33;29.50;;;1.30;84.60;;;;;;5034737;28;20382;-84
2022/12/10 11:30:43;;;;;;;53.35;29.73;;;1.30;85.40;;;;;;5033373;28;20147;-80
2022/12/10 11:33:30;;;;;;;52.33;28.40;;;1.30;84.20;;;;;;5035086;28;20029;-83
2022/12/10 11:36:19;;;;;;;51.95;30.23;;;1.30;84.10;;;;;;5035170;28;20041;-79
2022/12/10 11:39:02;;;;;;;55.03;29.98;;;1.20;83.80;;;;;;5038070;28;20029;-80
2022/12/10 11:42:14;;;;;;;53.28;29.55;;;1.20;83.80;;;;;;5037535;28;20483;-81
2022/12/10 11:45:03;;;;;;;48.92;27.77;;;1.10;83.80;;;;;;4993012;28;20030;-81
2022/12/10 11:47:41;;;;;;;46.78;26.80;;;1.10;83.80;;;;;;5029606;28;20430;-82
2022/12/10 11:50:25;;;;;;;48.97;27.60;;;1.10;83.70;;;;;;5033522;28;20030;-83
2022/12/10 11:53:28;;;;;;;45.88;26.42;;;1.20;83.40;;;;;;5032183;28;20041;-83
2022/12/10 11:56:30;;;;;;;47.70;27.98;;;1.30;83.10;;;;;;5033897;28;20402;-82
2022/12/10 11:59:05;;;;;;;45.38;25.65;;;1.20;83.30;;;;;;5033830;28;20044;-81
2022/12/10 12:01:52;;;;;;;48.80;27.35;;;1.20;83.20;;;;;;5032682;28;20496;-83
2022/12/10 12:04:36;;;;;;;47.17;25.48;;;1.20;83.30;;;;;;5033798;28;20026;-81
2022/12/10 12:07:12;;;;;;;46.78;25.98;;;1.30;82.80;;;;;;5033726;28;20508;-82
2022/12/10 12:10:15;;;;;;;45.00;26.00;;;1.30;82.40;;;;;;5049089;28;20115;-81
2022/12/10 12:13:04;;;;;;;47.08;26.70;;;1.30;82.10;;;;;;5031973;28;20025;-79
2022/12/10 12:15:57;;;;;;;44.75;25.25;;;1.20;82.10;;;;;;5032282;28;20470;-80
2022/12/10 12:18:32;;;;;;;47.17;25.10;;;1.20;81.80;;;;;;5033048;28;20029;-82
2022/12/10 12:21:01;;;;;;;43.38;23.60;;;1.20;81.40;;;;;;5033664;28;20025;-82
2022/12/10 12:23:39;;;;;;;44.03;24.70;;;1.20;81.60;;;;;;5032635;28;20026;-78
2022/12/10 12:26:14;;;;;;;42.80;24.80;;;1.10;81.90;;;;;;5032758;28;20474;-80
2022/12/10 12:28:52;;;;;;;46.20;25.65;;;1.20;82.10;;;;;;5033092;28;20037;-83
2022/12/10 12:31:22;;;;;;;41.75;24.05;;;1.10;82.00;;;;;;5032976;28;20029;-81
2022/12/10 12:33:58;;;;;;;47.67;25.02;;;1.10;82.10;;;;;;5033328;28;20026;-78
2022/12/10 12:36:30;;;;;;;47.28;25.65;;;1.20;82.10;;;;;;5033506;28;20098;-82
2022/12/10 12:39:02;;;;;;;49.97;25.60;;;1.20;81.90;;;;;;5033396;28;20030;-77
2022/12/10 12:42:03;;;;;;;45.92;24.70;;;1.20;81.70;;;;;;5033177;28;20017;-78
2022/12/10 12:44:45;;;;;;;46.22;26.40;;;1.20;82.10;;;;;;5031560;28;20116;-79
2022/12/10 12:47:37;;;;;;;45.88;25.80;;;1.10;82.20;;;;;;5033246;28;20056;-82
2022/12/10 12:50:05;;;;;;;45.90;26.75;;;1.00;82.10;;;;;;5031806;28;20076;-81
2022/12/10 12:52:43;;;;;;;53.05;29.38;;;1.00;82.10;;;;;;5032684;28;20609;-81
2022/12/10 12:55:44;;;;;;;57.38;30.55;;;1.10;82.60;;;;;;5032967;28;20024;-79
2022/12/10 12:58:22;;;;;;;49.88;28.67;;;1.10;82.80;;;;;;5032326;28;20037;-81
2022/12/10 13:00:52;;;;;;;54.78;30.48;;;1.10;83.00;;;;;;5032649;28;20026;-79
2022/12/10 13:03:39;;;;;;;51.45;30.15;;;1.10;83.20;;;;;;5032801;28;20037;-79
2022/12/10 13:06:28;;;;;;;52.85;28.38;;;1.00;83.20;;;;;;5033203;28;20593;-82
2022/12/10 13:09:15;;;;;;;55.72;28.92;;;1.00;83.70;;;;;;5033313;28;20036;-78
2022/12/10 13:12:00;;;;;;;51.65;29.02;;;1.10;83.70;;;;;;5033006;28;20374;-82
2022/12/10 13:14:53;;;;;;;50.05;27.85;;;1.20;84.30;;;;;;5033777;28;20067;-81